Latest Weather Observations for Parafield

IDS60901

Issued at 5:25 pm CST Wednesday 3 September 2014 (issued every 10 minutes, with the page automatically refreshed every 10 minutes)

About weather observations | Map of Adelaide area stations | Latest observations for Adelaide area | Other Formats
Station Details ID: 023013 Name: PARAFIELD AIRPORT Lat: -34.80 Lon: 138.63 Height: 9.5 m
Data from the previous 72 hours. | See also: Recent months at Parafield
Date/Time
CST
Tmp

°C
App
Tmp
°C
Dew
Point
°C
Rel
Hum
%
Delta-T

°C
Wind Press
QNH
hPa
Press
MSL
hPa
Rain
since
9 am
mm
Dir
 
Spd
km/h
Gust
km/h
Spd
kts
Gust
kts
03/05:00pm 14.0 10.3 6.4 60 3.6 N 15 20 8 11 1019.6 1019.6 0.0
03/04:30pm 14.5 10.8 6.1 57 4.0 N 15 22 8 12 1019.9 1019.9 0.0
03/04:00pm 14.7 11.0 6.5 58 4.0 N 15 20 8 11 1020.1 1020.1 0.0
03/03:30pm 14.5 11.1 5.8 56 4.1 N 13 19 7 10 1020.3 1020.3 0.0
03/03:00pm 14.4 10.2 5.5 55 4.2 NNW 17 26 9 14 1020.6 1020.6 0.0
03/02:30pm 14.8 11.1 6.1 56 4.2 N 15 20 8 11 1020.7 1020.7 0.0
03/02:00pm 14.2 10.9 6.3 59 3.8 N 13 20 7 11 1021.0 1021.0 0.0
03/01:30pm 14.1 10.5 6.7 61 3.6 N 15 20 8 11 1021.5 1021.5 0.0
03/01:00pm 13.8 9.6 5.7 58 3.8 N 17 26 9 14 1021.9 1021.8 0.0
03/12:30pm 13.7 9.4 5.1 56 4.0 N 17 22 9 12 1022.6 1022.5 0.0
03/12:00pm 13.7 9.1 5.8 59 3.7 N 19 26 10 14 1023.0 1022.9 0.0
03/11:30am 14.3 9.5 5.7 56 4.1 N 20 24 11 13 1023.4 1023.3 0.0
03/11:00am 13.7 9.4 5.3 57 3.9 N 17 22 9 12 1023.8 1023.7 0.0
03/10:30am 13.8 10.1 6.4 61 3.5 NE 15 22 8 12 1024.2 1024.1 0.0
03/10:00am 12.2 9.8 6.9 70 2.5 N 9 13 5 7 1024.7 1024.7 0.0
03/09:30am 10.7 8.9 7.0 78 1.7 N 6 9 3 5 1024.9 1024.9 0.0
03/09:00am 9.5 7.5 6.9 84 1.2 N 7 9 4 5 1025.2 1025.2 0.0
03/08:30am 7.9 7.0 6.2 89 0.8 CALM 0 6 0 3 1025.8 1025.8 0.0
03/08:00am 6.7 5.8 6.0 95 0.3 CALM 0 0 0 0 1026.1 1026.1 0.0
03/07:30am 5.1 2.5 4.4 95 0.3 WNW 7 9 4 5 1025.8 1025.8 0.0
03/07:00am 4.7 3.4 4.1 96 0.3 CALM 0 6 0 3 1025.3 1025.3 0.0
03/06:30am 3.5 2.0 2.9 96 0.2 CALM 0 2 0 1 1025.0 1025.0 0.0
03/06:00am 4.6 3.3 4.0 96 0.2 W 0 4 0 2 1024.9 1024.9 0.0
03/05:30am 3.1 1.5 2.5 96 0.2 CALM 0 0 0 0 1025.0 1025.0 0.0
03/05:00am 3.5 1.2 2.9 96 0.2 E 4 7 2 4 1024.6 1024.6 0.0
03/04:30am 3.6 0.8 3.0 96 0.2 N 7 11 4 6 1024.5 1024.5 0.0
03/04:00am 3.4 0.2 2.8 96 0.2 NE 9 11 5 6 1024.6 1024.6 0.0
03/03:30am 2.9 -0.1 2.3 96 0.2 N 7 9 4 5 1025.1 1025.1 0.0
03/03:00am 3.7 0.9 3.1 96 0.2 NE 7 9 4 5 1025.3 1025.3 0.0
03/02:30am 4.1 1.4 3.5 96 0.2 ENE 7 11 4 6 1025.9 1025.9 0.0
03/02:00am 3.8 2.3 3.2 96 0.2 CALM 0 6 0 3 1026.3 1026.3 0.0
03/01:30am 4.3 2.9 3.7 96 0.2 CALM 0 0 0 0 1026.2 1026.2 0.0
03/01:03am 3.6 2.1 3.0 96 0.2 CALM 0 0 0 0 1026.4 1026.4 0.0
03/01:00am 3.4 1.9 2.8 96 0.2 CALM 0 0 0 0 1026.4 1026.4 0.0
03/12:45am 3.0 0.6 2.3 95 0.3 W 4 7 2 4 1026.5 1026.5 0.0
03/12:30am 4.8 2.2 4.1 95 0.3 N 7 9 4 5 1026.5 1026.5 0.0
03/12:00am 5.2 2.9 4.6 96 0.3 E 6 7 3 4 1026.7 1026.7 0.0
 
Date/Time
CST
Tmp

°C
App
Tmp
°C
Dew
Point
°C
Rel
Hum
%
Delta-T

°C
Wind Press
QNH
hPa
Press
MSL
hPa
Rain
since
9 am
mm
Dir
 
Spd
km/h
Gust
km/h
Spd
kts
Gust
kts
02/11:30pm 4.4 3.0 3.5 94 0.4 CALM 0 0 0 0 1026.9 1026.9 0.0
02/11:00pm 5.4 3.8 4.4 93 0.4 E 2 7 1 4 1027.0 1027.0 0.0
02/10:30pm 5.8 4.6 4.8 93 0.4 CALM 0 0 0 0 1027.3 1027.3 0.0
02/10:00pm 6.1 4.9 4.6 90 0.6 CALM 0 0 0 0 1027.2 1027.2 0.0
02/09:30pm 6.4 4.1 4.6 88 0.8 S 6 7 3 4 1027.1 1027.1 0.0
02/09:00pm 8.1 7.2 5.9 86 1.0 CALM 0 0 0 0 1027.2 1027.2 0.0
02/08:30pm 8.5 7.5 5.6 82 1.3 CALM 0 0 0 0 1027.0 1027.0 0.0
02/08:00pm 8.3 6.1 5.4 82 1.3 S 6 7 3 4 1026.8 1026.8 0.0
02/07:30pm 8.3 5.4 4.9 79 1.5 S 9 11 5 6 1026.8 1026.8 0.0
02/07:00pm 9.5 6.3 4.9 73 2.1 SSE 11 13 6 7 1026.3 1026.3 0.0
02/06:30pm 9.8 7.1 5.8 76 1.8 SSW 9 13 5 7 1025.9 1025.9 0.0
02/06:00pm 10.6 6.9 4.5 66 2.7 SSW 13 17 7 9 1025.7 1025.7 0.0
02/05:30pm 13.0 8.1 4.2 55 4.0 S 19 24 10 13 1025.4 1025.4 0.0
02/05:00pm 14.5 10.1 4.8 52 4.5 SSW 17 20 9 11 1025.0 1025.0 0.0
02/04:30pm 14.6 9.5 6.2 57 4.0 WSW 22 32 12 17 1024.9 1024.9 0.0
02/04:00pm 15.1 10.0 5.9 54 4.4 SW 22 30 12 16 1025.0 1025.0 0.0
02/03:30pm 14.6 9.0 5.4 54 4.3 SSW 24 32 13 17 1024.7 1024.7 0.0
02/03:00pm 15.1 11.1 6.7 57 4.1 SW 17 24 9 13 1024.7 1024.7 0.0
02/02:30pm 13.0 8.4 8.1 72 2.4 SSW 22 30 12 16 1024.8 1024.8 0.0
02/02:00pm 14.8 9.4 6.4 57 4.1 SW 24 32 13 17 1024.7 1024.7 0.0
02/01:30pm 15.5 11.2 7.8 60 3.8 SW 20 30 11 16 1024.7 1024.7 0.0
02/01:00pm 15.0 10.4 8.0 63 3.5 SW 22 30 12 16 1024.8 1024.8 0.0
02/12:30pm 13.0 8.7 7.7 70 2.6 SW 20 28 11 15 1024.9 1024.9 0.0
02/12:00pm 15.6 11.3 7.1 57 4.2 SSW 19 32 10 17 1024.8 1024.8 0.0
02/11:30am 15.4 10.7 5.9 53 4.5 S 20 22 11 12 1025.1 1025.1 0.0
02/11:00am 15.1 11.4 6.1 55 4.3 SSE 15 24 8 13 1025.4 1025.4 0.0
02/10:30am 14.0 9.4 6.6 61 3.5 S 20 26 11 14 1025.4 1025.4 0.0
02/10:00am 12.6 8.5 6.4 66 2.9 S 17 26 9 14 1025.5 1025.5 0.0
02/09:30am 12.7 9.0 6.3 65 3.0 SSW 15 22 8 12 1025.3 1025.3 0.0
02/09:00am 12.0 8.8 6.9 71 2.4 S 13 19 7 10 1025.4 1025.4 2.8
02/08:30am 11.1 7.8 6.6 74 2.1 SSW 13 22 7 12 1025.4 1025.4 2.8
02/08:00am 9.9 7.5 7.0 82 1.4 S 9 13 5 7 1025.1 1025.1 2.8
02/07:30am 7.2 5.0 6.3 94 0.4 SSW 7 9 4 5 1024.5 1024.5 2.8
02/07:00am 5.2 2.8 4.2 93 0.4 S 6 6 3 3 1024.1 1024.0 2.8
02/06:30am 4.8 2.1 3.6 92 0.5 S 7 9 4 5 1023.7 1023.6 2.8
02/06:00am 5.1 2.7 4.1 93 0.4 SSW 6 7 3 4 1023.2 1023.1 2.8
02/05:30am 5.8 4.7 4.9 94 0.4 CALM 0 0 0 0 1022.7 1022.6 2.8
02/05:00am 5.9 4.8 4.9 93 0.4 CALM 0 0 0 0 1022.2 1022.1 2.8
02/04:30am 6.6 4.2 5.2 91 0.6 S 7 9 4 5 1021.7 1021.6 2.8
02/04:00am 6.4 4.9 5.2 92 0.5 SE 2 6 1 3 1021.4 1021.4 2.8
02/03:30am 7.3 5.0 5.8 90 0.7 SSE 7 9 4 5 1021.0 1021.0 2.8
02/03:00am 8.4 4.6 6.0 85 1.1 S 15 22 8 12 1020.8 1020.8 2.8
02/02:30am 7.1 3.6 3.7 79 1.4 SSW 11 15 6 8 1020.7 1020.7 2.0
02/02:00am 8.9 4.0 5.1 77 1.7 S 20 35 11 19 1020.7 1020.7 2.0
02/01:30am 8.3 6.2 5.6 83 1.2 S 6 9 3 5 1020.5 1020.5 2.0
02/01:00am 10.2 4.6 5.4 72 2.2 S 24 28 13 15 1020.3 1020.3 2.0
02/12:30am 10.0 4.8 5.6 74 2.0 SW 22 32 12 17 1020.2 1020.2 2.0
02/12:00am 8.1 5.3 5.2 82 1.3 SSW 9 24 5 13 1020.2 1020.2 2.0
 
Date/Time
CST
Tmp

°C
App
Tmp
°C
Dew
Point
°C
Rel
Hum
%
Delta-T

°C
Wind Press
QNH
hPa
Press
MSL
hPa
Rain
since
9 am
mm
Dir
 
Spd
km/h
Gust
km/h
Spd
kts
Gust
kts
01/11:30pm 7.6 5.3 5.6 87 0.9 S 7 9 4 5 1020.2 1020.2 2.0
01/11:00pm 8.8 5.1 6.4 85 1.1 S 15 22 8 12 1020.0 1020.0 2.0
01/10:30pm 10.1 5.5 6.4 78 1.7 SW 20 33 11 18 1019.6 1019.6 2.0
01/10:00pm 10.0 6.8 6.9 81 1.5 SW 13 20 7 11 1019.3 1019.3 2.0
01/09:30pm 9.5 5.4 6.4 81 1.4 SSW 17 24 9 13 1019.1 1019.1 2.0
01/09:00pm 9.4 6.8 7.7 89 0.8 SW 11 20 6 11 1018.9 1018.9 2.0
01/08:30pm 8.5 6.5 7.1 91 0.7 SSW 7 9 4 5 1018.6 1018.6 1.8
01/08:03pm 9.3 1.9 6.7 84 1.2 SW 35 54 19 29 1018.2 1018.2 0.8
01/08:00pm 9.6 1.4 6.7 82 1.4 SW 39 54 21 29 1018.2 1018.2 0.6
01/07:59pm 9.6 1.4 6.7 82 1.4 SW 39 57 21 31 1018.1 1018.1 0.6
01/07:58pm 9.7 1.1 6.6 81 1.4 SW 41 57 22 31 1018.1 1018.1 0.6
01/07:33pm 11.0 4.2 7.7 80 1.6 W 33 54 18 29 1017.3 1017.3 0.6
01/07:30pm 11.5 5.8 8.2 80 1.6 W 28 43 15 23 1017.3 1017.3 0.6
01/07:00pm 9.6 7.2 7.0 84 1.2 WNW 9 13 5 7 1017.2 1017.2 0.6
01/06:30pm 9.4 7.0 6.8 84 1.2 WSW 9 13 5 7 1016.8 1016.8 0.6
01/06:00pm 10.2 4.7 7.4 83 1.3 WSW 26 37 14 20 1016.7 1016.7 0.6
01/05:30pm 13.0 7.0 7.2 68 2.8 WSW 28 44 15 24 1015.9 1015.9 0.2
01/05:00pm 12.9 7.8 6.0 63 3.3 WSW 22 33 12 18 1015.5 1015.5 0.2
01/04:30pm 14.1 8.9 5.7 57 4.0 WSW 22 32 12 17 1015.2 1015.2 0.2
01/04:00pm 13.8 8.2 5.2 56 4.0 SW 24 30 13 16 1014.8 1014.8 0.2
01/03:30pm 15.3 9.3 5.2 51 4.8 SW 26 37 14 20 1014.7 1014.7 0.2
01/03:00pm 15.8 9.8 5.1 49 5.1 SW 26 33 14 18 1014.5 1014.5 0.2
01/02:30pm 15.9 9.3 4.0 45 5.5 SW 28 41 15 22 1014.2 1014.2 0.2
01/02:00pm 15.5 8.5 3.9 46 5.3 WSW 30 37 16 20 1014.0 1014.0 0.2
01/01:30pm 15.5 8.4 5.4 51 4.8 WSW 32 43 17 23 1014.2 1014.2 0.2
01/01:00pm 15.4 8.8 7.7 60 3.8 SW 32 43 17 23 1014.4 1014.4 0.2
01/12:30pm 14.5 9.4 7.5 63 3.5 SW 24 37 13 20 1014.5 1014.5 0.2
01/12:00pm 14.9 9.5 7.9 63 3.5 SW 26 39 14 21 1014.5 1014.5 0.2
01/11:30am 14.2 9.0 9.0 71 2.6 SW 26 35 14 19 1014.5 1014.5 0.2
01/11:14am 13.6 8.5 9.3 75 2.2 SW 26 35 14 19 1014.5 1014.5 0.2
01/11:00am 13.2 9.0 9.8 80 1.7 WSW 22 35 12 19 1014.5 1014.5 0.2
01/10:37am 12.7 10.1 10.6 87 1.1 WSW 15 20 8 11 1014.5 1014.5 0.2
01/10:30am 12.1 9.4 10.3 89 0.9 W 15 20 8 11 1014.6 1014.6 0.2
01/10:00am 12.8 11.7 10.5 86 1.2 WNW 7 11 4 6 1014.4 1014.4 0.0
01/09:30am 12.0 12.1 10.1 88 1.0 CALM 0 0 0 0 1014.3 1014.3 0.0
01/09:00am 11.4 10.0 9.7 89 0.9 SW 7 11 4 6 1014.2 1014.2 8.0
01/08:30am 11.3 8.0 9.6 89 0.9 SW 17 22 9 12 1014.0 1014.0 7.6
01/08:11am 11.6 6.4 10.3 92 0.7 WSW 28 41 15 22 1013.6 1013.6 7.0
01/08:00am 12.1 10.8 11.2 94 0.5 WNW 9 13 5 7 1013.3 1013.3 7.0
01/07:30am 11.9 9.8 11.0 94 0.5 W 13 17 7 9 1013.4 1013.4 6.8
01/07:23am 11.8 9.6 10.9 94 0.5 W 13 20 7 11 1013.3 1013.3 6.8
01/07:20am 11.8 8.9 10.9 94 0.5 W 17 26 9 14 1013.2 1013.2 6.6
01/07:05am 11.6 7.3 10.7 94 0.5 WSW 24 28 13 15 1012.8 1012.8 6.4
01/07:01am 12.1 10.4 11.3 95 0.4 W 11 24 6 13 1012.7 1012.7 6.0
01/07:00am 12.4 11.3 11.8 96 0.3 W 9 24 5 13 1012.7 1012.7 6.0
01/06:50am 12.6 11.1 12.0 96 0.3 WNW 11 13 6 7 1012.6 1012.6 5.4
01/06:30am 12.4 11.3 11.8 96 0.3 NW 9 11 5 6 1012.7 1012.7 5.4
01/06:01am 12.2 11.4 11.6 96 0.3 N 7 11 4 6 1012.2 1012.2 5.4
01/06:00am 12.2 11.4 11.6 96 0.3 N 7 11 4 6 1012.2 1012.2 5.4
01/05:32am 12.0 11.3 11.4 96 0.3 NNW 6 7 3 4 1012.2 1012.2 5.4
01/05:30am 12.0 11.3 11.4 96 0.3 NNW 6 7 3 4 1012.2 1012.2 5.4
01/05:00am 12.0 11.3 11.4 96 0.3 NW 6 7 3 4 1012.1 1012.1 5.4
01/04:32am 11.8 10.9 11.2 96 0.3 NNW 7 9 4 5 1011.9 1011.9 5.4
01/04:30am 11.8 10.9 11.2 96 0.3 NW 7 9 4 5 1011.9 1011.9 5.4
01/04:04am 11.4 11.6 10.6 95 0.4 CALM 0 0 0 0 1011.3 1011.3 5.2
01/04:00am 11.6 11.9 10.8 95 0.4 CALM 0 0 0 0 1011.3 1011.3 5.2
01/03:30am 11.8 10.8 11.0 95 0.4 WSW 7 9 4 5 1011.5 1011.5 5.0
01/03:20am 11.7 10.9 10.9 95 0.4 SW 6 7 3 4 1011.6 1011.6 4.8
01/03:17am 11.7 10.9 10.9 95 0.4 SW 6 7 3 4 1011.6 1011.6 4.8
01/03:00am 11.7 10.7 10.9 95 0.4 SW 7 11 4 6 1011.7 1011.7 4.4
01/02:49am 11.7 10.7 10.9 95 0.4 SW 7 11 4 6 1011.8 1011.8 4.4
01/02:30am 11.7 9.8 10.6 93 0.6 WSW 11 15 6 8 1012.1 1012.1 3.2
01/02:00am 11.9 9.3 10.8 93 0.6 SSW 15 20 8 11 1011.8 1011.8 2.2
01/01:30am 12.5 9.1 11.2 92 0.7 WSW 20 28 11 15 1012.3 1012.3 1.2
01/01:24am 12.7 9.3 11.3 91 0.7 WSW 20 28 11 15 1012.1 1012.1 0.6
01/01:11am 13.1 9.8 11.5 90 0.8 WSW 20 26 11 14 1012.2 1012.2 0.2
01/01:00am 13.3 10.6 11.7 90 0.9 WSW 17 24 9 13 1012.2 1012.2 0.2
01/12:30am 13.5 10.9 12.1 91 0.8 WSW 17 20 9 11 1012.2 1012.2 0.2
01/12:05am 13.7 11.4 11.9 89 1.0 WSW 15 20 8 11 1012.0 1012.0 0.0
01/12:00am 13.9 11.7 12.1 89 1.0 WSW 15 20 8 11 1012.5 1012.5 0.0
 
Date/Time
CST
Tmp

°C
App
Tmp
°C
Dew
Point
°C
Rel
Hum
%
Delta-T

°C
Wind Press
QNH
hPa
Press
MSL
hPa
Rain
since
9 am
mm
Dir
 
Spd
km/h
Gust
km/h
Spd
kts
Gust
kts
31/11:30pm 14.6 12.0 12.1 85 1.4 SW 17 22 9 12 1011.8 1011.8 0.0
31/11:00pm 14.2 12.3 11.7 85 1.3 SSW 13 19 7 10 1010.7 1010.7 0.0
31/10:30pm 15.0 12.3 11.6 80 1.8 WSW 17 22 9 12 1012.0 1012.0 0.0
31/10:21pm 14.9 11.7 11.1 78 2.0 WSW 19 22 10 12 1012.2 1012.2 0.0
31/10:00pm 14.9 11.5 10.5 75 2.3 SSW 19 26 10 14 1011.0 1011.0 0.0
31/09:30pm 14.7 11.7 7.5 62 3.6 SW 13 17 7 9 1011.1 1011.1 0.0
31/09:00pm 15.0 11.5 7.1 59 3.9 WSW 15 20 8 11 1011.2 1011.2 0.0
31/08:30pm 14.1 11.2 6.7 61 3.6 WSW 11 15 6 8 1010.7 1010.7 0.0
31/08:00pm 16.4 14.4 7.1 54 4.6 WSW 7 13 4 7 1010.9 1010.9 0.0
31/07:30pm 16.7 16.1 7.4 54 4.7 CALM 0 6 0 3 1011.3 1011.3 0.0
31/07:00pm 18.2 16.4 7.3 49 5.5 NW 6 11 3 6 1010.8 1010.8 0.0
31/06:30pm 17.7 13.3 7.2 50 5.3 W 20 30 11 16 1010.6 1010.6 0.0
31/06:00pm 18.3 15.2 7.1 48 5.6 NE 13 15 7 8 1010.3 1010.3 0.0
31/05:30pm 19.4 15.7 6.2 42 6.6 NNE 15 17 8 9 1010.2 1010.2 0.0

Latest Capital City Observations: Canberra | Sydney | Melbourne | Brisbane | Adelaide | Perth | Hobart | Darwin

Other Formats:

Comma delimited format used in spreadsheet applications
http://www.bom.gov.au/fwo/IDS60901/IDS60901.95677.axf

JavaScript Object Notation format (JSON) in row-major order
http://www.bom.gov.au/fwo/IDS60901/IDS60901.95677.json